No particular awareness of the weather is required.    There are no Weather-warnings


Meteo18 Weather Cam more information Meteo18 Weather Cam


Thunder radar more information blitzortung!


Rain radar more information rain snow radar


Visit our other weather sites:

Template documentation
and downloads

And another site



Weather Underground History page Text

Daily Summary for May 28, 2016 Units:  Metric    English   Both
« Previous Day
Next Day »
Daily Weekly Monthly Yearly Custom
  High: Low: Average:
Temperature: 24.7 °C 15.7 °C 21 °C
Dew Point: 18.9 °C 13.8 °C 17 °C
Humidity: 94 % 61 % 79 %
Wind Speed: 4.8 km/h 0.0 km/h 0.4 km/h
Wind Gust: 8.0 km/h - -
Wind:- - SSW
Pressure: 1010.0 hPa 1006.3 hPa -
Precipitation: 13.7 mm    
Historical Graphs
 
 
Tabular Data for May 28, 2016
Time Temperature Dew Point Pressure Wind Wind Speed Wind Gust Humidity Rainfall Rate (Hourly)
13:42 22.3 °C 17.4 °C 1010.0 hPa SW 1.6 km/h 4.8 km/h 74 % 0.0 mm
13:47 22.3 °C 17.2 °C 1010.0 hPa Calm   4.8 km/h 73 % 0.0 mm
13:52 22.3 °C 17.4 °C 1010.0 hPa Calm   6.4 km/h 74 % 0.0 mm
13:57 22.8 °C 17.7 °C 1010.0 hPa Calm   6.4 km/h 73 % 0.0 mm
14:07 22.8 °C 17.5 °C 1010.0 hPa WSW 3.2 km/h 8.0 km/h 72 % 0.0 mm
14:12 22.8 °C 17.3 °C 1010.0 hPa WSW 1.6 km/h 8.0 km/h 71 % 0.0 mm
14:17 23.1 °C 17.3 °C 1009.7 hPa WSW 4.8 km/h 8.0 km/h 70 % 0.0 mm
14:22 23.3 °C 18.2 °C 1009.7 hPa Calm   8.0 km/h 73 % 0.0 mm
14:27 23.7 °C 17.7 °C 1009.7 hPa WNW 1.6 km/h 8.0 km/h 69 % 0.0 mm
14:32 24.0 °C 18.6 °C 1009.7 hPa SW 1.6 km/h 8.0 km/h 72 % 0.0 mm
14:37 24.1 °C 18.3 °C 1009.7 hPa Calm   6.4 km/h 70 % 0.0 mm
14:42 24.2 °C 17.0 °C 1009.4 hPa NW 1.6 km/h 6.4 km/h 64 % 0.0 mm
14:47 23.9 °C 17.9 °C 1009.4 hPa Calm   6.4 km/h 69 % 0.0 mm
14:52 23.9 °C 17.6 °C 1009.4 hPa Calm   6.4 km/h 68 % 0.0 mm
14:57 24.4 °C 18.1 °C 1009.4 hPa Calm   6.4 km/h 68 % 0.0 mm
15:02 24.7 °C 18.6 °C 1009.0 hPa Calm   6.4 km/h 69 % 0.0 mm
15:07 24.5 °C 16.5 °C 1009.0 hPa Calm   4.8 km/h 61 % 0.0 mm
15:12 24.3 °C 17.3 °C 1009.0 hPa NNW 1.6 km/h 4.8 km/h 65 % 0.0 mm
15:22 24.6 °C 16.8 °C 1009.0 hPa Calm   4.8 km/h 62 % 0.0 mm
15:27 24.1 °C 16.9 °C 1009.0 hPa Calm   4.8 km/h 64 % 0.0 mm
15:32 24.1 °C 17.6 °C 1009.0 hPa Calm   3.2 km/h 67 % 0.0 mm
15:37 23.8 °C 17.1 °C 1009.0 hPa Calm   3.2 km/h 66 % 0 mm
15:42 23.7 °C 17.0 °C 1009.0 hPa West 3.2 km/h 3.2 km/h 66 % 0.0 mm
15:52 23.9 °C 16.7 °C 1008.7 hPa Calm   3.2 km/h 64 % 0.0 mm
15:57 23.8 °C 16.8 °C 1008.7 hPa Calm   3.2 km/h 65 % 0.0 mm
16:02 23.7 °C 16.7 °C 1008.7 hPa Calm   3.2 km/h 65 % 0.0 mm
16:12 23.6 °C 17.6 °C 1008.4 hPa Calm   3.2 km/h 69 % 0.0 mm
16:22 23.4 °C 17.2 °C 1008.4 hPa Calm   3.2 km/h 68 % 0.0 mm
16:27 23.3 °C 17.1 °C 1008.4 hPa Calm   3.2 km/h 68 % 0.0 mm
16:32 23.3 °C 17.1 °C 1008.4 hPa Calm   1.6 km/h 68 % 0.0 mm
16:37 23.2 °C 17.0 °C 1008.4 hPa Calm   1.6 km/h 68 % 0.0 mm
16:42 23.3 °C 16.8 °C 1008.4 hPa Calm   1.6 km/h 67 % 0.0 mm
16:47 23.3 °C 17.3 °C 1008.4 hPa Calm   1.6 km/h 69 % 0.0 mm
16:52 23.1 °C 17.3 °C 1008.4 hPa Calm   1.6 km/h 70 % 0.0 mm
17:02 23.0 °C 17.5 °C 1008.7 hPa WSW 1.6 km/h 1.6 km/h 71 % 0.0 mm
17:12 23.3 °C 17.1 °C 1008.4 hPa Calm   3.2 km/h 68 % 0.0 mm
17:17 23.4 °C 17.2 °C 1008.4 hPa Calm   3.2 km/h 68 % 0.0 mm
17:32 23.8 °C 16.8 °C 1008.0 hPa Calm   1.6 km/h 65 % 0.0 mm
17:37 23.9 °C 18.1 °C 1008.0 hPa Calm   1.6 km/h 70 % 0.0 mm
17:42 23.8 °C 17.3 °C 1007.7 hPa Calm   1.6 km/h 67 % 0.0 mm
17:47 23.7 °C 17.7 °C 1007.7 hPa Calm   1.6 km/h 69 % 0.0 mm
17:52 23.6 °C 17.6 °C 1007.7 hPa Calm   1.6 km/h 69 % 0.0 mm
18:02 23.4 °C 17.2 °C 1007.7 hPa Calm     68 % 0.0 mm
18:12 23.2 °C 18.3 °C 1007.7 hPa Calm     74 % 0.0 mm
18:17 23.0 °C 18.1 °C 1007.7 hPa Calm     74 % 0.0 mm
18:22 22.8 °C 17.9 °C 1007.3 hPa Calm     74 % 0.0 mm
18:32 23.1 °C 18.6 °C 1007.7 hPa Calm     76 % 0.0 mm
18:37 23.1 °C 18.0 °C 1007.3 hPa Calm     73 % 0.0 mm
18:42 23.1 °C 17.8 °C 1007.3 hPa Calm     72 % 0.0 mm
18:52 22.8 °C 17.9 °C 1007.3 hPa Calm     74 % 0.0 mm
18:57 22.7 °C 18.2 °C 1007.3 hPa Calm     76 % 0.0 mm
19:02 22.5 °C 18.5 °C 1007.3 hPa Calm     78 % 0.0 mm
19:12 22.3 °C 18.9 °C 1007.3 hPa Calm     81 % 0.0 mm
19:22 21.9 °C 18.5 °C 1007.3 hPa Calm     81 % 0.0 mm
19:32 21.5 °C 18.3 °C 1007.0 hPa Calm     82 % 0.0 mm
19:37 21.3 °C 18.5 °C 1007.0 hPa Calm     84 % 0.0 mm
19:42 21.1 °C 18.3 °C 1007.0 hPa Calm     84 % 0.0 mm
19:47 20.9 °C 18.3 °C 1007.0 hPa Calm     85 % 0.0 mm
19:52 20.7 °C 18.3 °C 1007.3 hPa Calm     86 % 0.0 mm
19:57 20.4 °C 18.2 °C 1007.3 hPa Calm     87 % 0.0 mm
20:02 20.4 °C 18.3 °C 1007.3 hPa Calm     88 % 0.0 mm
20:12 20.1 °C 18.2 °C 1007.7 hPa Calm     89 % 0.0 mm
20:17 20.0 °C 18.1 °C 1007.3 hPa Calm     89 % 0.0 mm
20:22 19.9 °C 18.0 °C 1007.3 hPa Calm     89 % 0.0 mm
20:32 19.7 °C 17.8 °C 1007.0 hPa Calm   3.2 km/h 89 % 0.0 mm
20:37 19.6 °C 17.7 °C 1006.7 hPa Calm   3.2 km/h 89 % 0.0 mm
20:42 19.4 °C 17.5 °C 1006.7 hPa Calm   3.2 km/h 89 % 0.0 mm
20:47 19.3 °C 17.4 °C 1006.7 hPa Calm     89 % 0.0 mm
20:52 19.2 °C 17.5 °C 1006.7 hPa Calm     90 % 0.0 mm
20:57 19.1 °C 17.4 °C 1006.7 hPa Calm     90 % 0.0 mm
21:02 19.1 °C 17.6 °C 1006.7 hPa Calm     91 % 0.0 mm
21:12 18.8 °C 17.3 °C 1007.0 hPa Calm     91 % 0.0 mm
21:17 18.8 °C 17.3 °C 1006.7 hPa Calm     91 % 0.0 mm
21:22 18.7 °C 17.2 °C 1006.7 hPa Calm     91 % 0.0 mm
21:27 18.7 °C 17.2 °C 1006.7 hPa Calm     91 % 0.0 mm
21:32 18.5 °C 17.2 °C 1006.3 hPa Calm     92 % 0.0 mm
21:37 18.3 °C 17.0 °C 1006.3 hPa Calm     92 % 0.0 mm
21:42 18.2 °C 16.9 °C 1006.7 hPa Calm     92 % 0.0 mm
21:47 18.0 °C 16.9 °C 1006.7 hPa Calm     93 % 0.0 mm
21:52 17.9 °C 16.8 °C 1006.7 hPa Calm     93 % 0.0 mm
21:57 17.8 °C 16.8 °C 1007.0 hPa Calm     94 % 0.0 mm
22:02 17.8 °C 16.8 °C 1007.0 hPa Calm     94 % 0.0 mm
22:12 17.1 °C 14.9 °C 1006.7 hPa NE 3.2 km/h   87 % 0.0 mm
22:17 17.1 °C 14.9 °C 1006.7 hPa NE 3.2 km/h 8.0 km/h 87 % 0.0 mm
22:22 17.0 °C 14.6 °C 1007.0 hPa Calm   8.0 km/h 86 % 0.0 mm
22:32 16.9 °C 14.5 °C 1007.0 hPa Calm   4.8 km/h 86 % 0.0 mm
22:42 16.8 °C 14.6 °C 1007.3 hPa NNE 3.2 km/h 3.2 km/h 87 % 0.0 mm
22:47 16.7 °C 14.5 °C 1007.3 hPa NE 1.6 km/h 6.4 km/h 87 % 0.0 mm
22:52 16.5 °C 14.3 °C 1007.3 hPa Calm   6.4 km/h 87 % 0.0 mm
22:57 16.3 °C 14.1 °C 1007.7 hPa Calm   6.4 km/h 87 % 0.0 mm
23:02 16.2 °C 14.0 °C 1007.7 hPa Calm   6.4 km/h 87 % 0.0 mm
23:12 16.0 °C 13.8 °C 1007.7 hPa Calm   6.4 km/h 87 % 0.0 mm
23:17 15.9 °C 13.9 °C 1007.7 hPa Calm   1.6 km/h 88 % 0.0 mm
23:22 15.8 °C 13.8 °C 1007.7 hPa Calm     88 % 0.0 mm
23:32 15.8 °C 14.2 °C 1007.3 hPa Calm   1.6 km/h 90 % 0.0 mm
23:37 15.7 °C 14.2 °C 1007.3 hPa Calm   1.6 km/h 91 % 0.0 mm
23:42 15.7 °C 14.2 °C 1007.7 hPa Calm   1.6 km/h 91 % 0.0 mm
23:47 15.7 °C 14.4 °C 1007.7 hPa Calm   1.6 km/h 92 % 0.0 mm
23:52 15.7 °C 14.6 °C 1007.7 hPa SW 1.6 km/h 1.6 km/h 93 % 0.0 mm
23:57 15.7 °C 14.4 °C 1007.7 hPa Calm   4.8 km/h 92 % 0.0 mm
Meteo18
Compliments of Weather Underground - 4 mb

Script developed by  Jim McMurry - jmcmurry@mwt.net Adapted for the template by  Wim van der Kuil - Leuven-Template.eu

You find our weather info also at:

European Weather Network

Weather Underground

Equipment we use:

Weather-station
Davis Vue

Weather-program
Meteohub

Weather-server
Raspberry PI 2 B+

Provider
1 and 1

Davis Vue

Meteohub

Raspberry PI 2 B+

1 and 1